Terminal Aerodrome Forecast
Issued by NWS Cleveland, OH

Home | Current Version | Previous Version | Graphics & Text | Print | Product List | Glossary On
Versions: 1 2 3 4 5 6 7 8 9 10 11 12 13 14 15 16 17 18 19 20
000
FTUS41 KCLE 270500
TAFYNG
TAF
KYNG 270527Z 2706/2806 00000KT P6SM OVC035
     FM271100 32008KT P6SM SCT008 OVC025
      TEMPO 2711/2714 3SM -SHSN
     FM271700 30008KT P6SM OVC025
     FM272300 30008KT P6SM OVC012
      TEMPO 2723/2802 3SM -SHSN=

USA.gov is the U.S. government's official web portal to all federal, state and local government web resources and services.